KRKW/RKW METAR and TAF weather

Enter ICAO airport designator
Station Type Date Time Source
KRKW METAR 2021/05/11 22:35 UTC NOAA

KRKW 112235Z AUTO VRB05KT 10SM FEW065 BKN095 BKN120 19/06 A3011 RMK A01


Station Type Date Time Source
KRKW Decoded METAR 2021/05/11 22:35 UTC NOAA

Station name not available
May 11, 2021 - 06:35 PM EDT / 2021.05.11 2235 UTC
Wind: Variable at 6 MPH (5 KT):0
Visibility: 10 mile(s):0
Sky conditions: mostly cloudy
Temperature: 66 F (19 C)
Dew Point: 42 F (6 C)
Relative Humidity: 42%
Pressure (altimeter): 30.11 in. Hg (1019 hPa)
ob: KRKW 112235Z AUTO VRB05KT 10SM FEW065 BKN095 BKN120 19/06 A3011 RMK A01
cycle: 22

Station Type Date Time Source
KRKW TAF 2009/08/31 19:50 UTC NOAA

METAR KRKW 311950Z AUTO VRB05KT 10SM CLR 25/13 A3010
RMK AO1 T02500133 $

Example: see airport list